Queen Of Cowichan — CZ4990 — position and weather

sailwx.info

Track history (hours):
 
Tides and Currents Weather Stations Pressure Air Temp Water Temp Dewpoint Dewpoint Depression Visibility Wind Speed Wind Dir Waves Ship Positions

Queen Of Cowichan

Last reported at 2015-May-03 15:33 UTC. Time now 2015-May-03 15:53 UTC.
Position N 49°23' W 123°16'.

Length 139 m; draft 5.5 m.

Type: Passenger vessel. MMSI: 316001251.

Date/timePositionNaut miles runAvg speedWind from/ knotsBaromVisibWave heightAir tempDewpointWater temp
2015-May-03 15:33N 49°23' W 123°16'9 9.5
2015-May-03 14:33N 49°18' W 123°29'2018.7
2015-May-03 13:31N 49°12' W 123°57'0 0.2
2015-May-03 12:30N 49°12' W 123°57'0 0.0
2015-May-03 07:33N 49°12' W 123°57'2 1.0
2015-May-03 05:33N 49°13' W 123°55'1919.1
2015-May-03 04:33N 49°19' W 123°27'7 7.0
2015-May-03 03:33N 49°23' W 123°18'2019.7
2015-May-03 02:33N 49°15' W 123°46'5 5.5
2015-May-03 01:34N 49°13' W 123°54'2019.8
2015-May-03 00:33N 49°19' W 123°24'6 5.9
2015-May-02 23:33N 49°23' W 123°18'1919.3
2015-May-02 22:33N 49°15' W 123°45'9 8.7
2015-May-02 21:33N 49°12' W 123°57'1818.5
2015-May-02 20:34N 49°18' W 123°31'1010.3
2015-May-02 19:33N 49°23' W 123°16'1514.8
2015-May-02 18:33N 49°16' W 123°36'1413.7
2015-May-02 17:30N 49°12' W 123°57'1212.7
2015-May-02 16:34N 49°17' W 123°41'1715.2
2015-May-02 15:27N 49°23' W 123°16'910.7
2015-May-02 14:33N 49°17' W 123°28'1919.4
2015-May-02 13:33N 49°12' W 123°57'0 0.0
2015-May-02 06:25N 49°12' W 123°57'1112.6
2015-May-02 05:34N 49°16' W 123°42'1818.2
2015-May-02 04:33N 49°23' W 123°16'9 9.1
2015-May-02 03:33N 49°18' W 123°28'2019.7
2015-May-02 02:32N 49°12' W 123°57'8 8.1
2015-May-02 01:33N 49°15' W 123°46'1919.0
2015-May-02 00:33N 49°22' W 123°19'1 1.3
2015-May-01 23:33N 49°21' W 123°20'2019.9
2015-May-01 22:33N 49°14' W 123°49'6 5.9
2015-May-01 21:32N 49°12' W 123°57'1919.1
2015-May-01 20:34N 49°18' W 123°31'1010.1
2015-May-01 19:33N 49°23' W 123°16'1313.2
2015-May-01 18:33N 49°17' W 123°34'1615.9
2015-May-01 17:33N 49°12' W 123°57'1110.7
2015-May-01 16:33N 49°16' W 123°43'1818.3
2015-May-01 15:33N 49°23' W 123°16'9 8.9
2015-May-01 14:33N 49°18' W 123°28'2019.9
2015-May-01 13:33N 49°12' W 123°57'1 0.2
2015-May-01 11:16N 49°12' W 123°57'0 0.0
2015-May-01 09:28N 49°12' W 123°57'0 0.0
2015-May-01 07:04N 49°12' W 123°57'2 1.3
2015-May-01 05:33N 49°13' W 123°55'2019.9
2015-May-01 04:34N 49°19' W 123°26'5 4.6
2015-May-01 03:33N 49°21' W 123°20'2019.8
2015-May-01 02:33N 49°14' W 123°48'5 4.9
2015-May-01 01:34N 49°13' W 123°55'2019.6
2015-May-01 00:33N 49°19' W 123°27'8 7.9
2015-Apr-30 23:33N 49°23' W 123°16'1818.6
2015-Apr-30 22:33N 49°15' W 123°42'11 8.8
2015-Apr-30 21:21N 49°12' W 123°57'1417.6
2015-Apr-30 20:34N 49°17' W 123°38'1514.7
2015-Apr-30 19:33N 49°23' W 123°16'1010.4
2015-Apr-30 18:33N 49°18' W 123°30'1914.0
2015-Apr-30 17:13N 49°12' W 123°57'1015.3
2015-Apr-30 16:33N 49°16' W 123°44'1919.0
2015-Apr-30 15:33N 49°23' W 123°16'9 9.1
2015-Apr-30 14:34N 49°18' W 123°28'2019.9
2015-Apr-30 13:33N 49°12' W 123°57'0 0.3
2015-Apr-30 12:09N 49°12' W 123°57'0 0.0
2015-Apr-30 10:21N 49°12' W 123°57'0 0.0
2015-Apr-30 09:15N 49°12' W 123°57'0 0.0
2015-Apr-30 08:15N 49°12' W 123°57'0 0.0
2015-Apr-30 07:33N 49°12' W 123°57'1 0.3
2015-Apr-30 05:33N 49°12' W 123°57'2019.8
2015-Apr-30 04:33N 49°18' W 123°28'8 7.9
2015-Apr-30 03:34N 49°23' W 123°18'1919.3
2015-Apr-30 02:33N 49°15' W 123°45'8 7.7
2015-Apr-30 01:33N 49°12' W 123°56'2019.7
2015-Apr-30 00:33N 49°19' W 123°28'9 8.6
2015-Apr-29 23:33N 49°23' W 123°16'1918.9
2015-Apr-29 22:33N 49°15' W 123°43'10 7.5
2015-Apr-29 21:12N 49°12' W 123°57'1117.7
2015-Apr-29 20:34N 49°17' W 123°42'1716.4
2015-Apr-29 19:30N 49°23' W 123°16'9 9.2
2015-Apr-29 18:34N 49°18' W 123°28'2020.0
2015-Apr-29 17:33N 49°12' W 123°57'9 9.3
2015-Apr-29 16:33N 49°16' W 123°44'1919.2
2015-Apr-29 15:34N 49°23' W 123°16'9 9.3
2015-Apr-29 14:33N 49°18' W 123°28'2019.7
2015-Apr-29 13:34N 49°12' W 123°57'1 0.4
2015-Apr-29 12:17N 49°12' W 123°57'0 0.0
2015-Apr-29 11:32N 49°12' W 123°57'0 0.0
2015-Apr-29 10:29N 49°12' W 123°57'0 0.0
2015-Apr-29 09:17N 49°12' W 123°57'0 0.0
2015-Apr-29 07:08N 49°12' W 123°57'0 0.0
2015-Apr-29 06:32N 49°12' W 123°57'1 0.6
2015-Apr-29 05:34N 49°12' W 123°57'2020.0
2015-Apr-29 04:33N 49°19' W 123°28'7 6.7
2015-Apr-29 03:33N 49°22' W 123°19'1919.4
2015-Apr-29 02:33N 49°15' W 123°46'6 6.1
2015-Apr-29 01:34N 49°13' W 123°55'1919.4
2015-Apr-29 00:34N 49°19' W 123°27'8 7.7
2015-Apr-28 23:34N 49°23' W 123°17'1919.2
2015-Apr-28 22:33N 49°15' W 123°44'9 8.4
2015-Apr-28 21:27N 49°12' W 123°57'1415.3
2015-Apr-28 20:33N 49°17' W 123°38'1511.8
2015-Apr-28 19:15N 49°23' W 123°16'1116.1
2015-Apr-28 18:33N 49°17' W 123°31'1817.5
2015-Apr-28 17:32N 49°12' W 123°57'1110.8
2015-Apr-28 16:33N 49°16' W 123°42'1818.4
2015-Apr-28 15:33N 49°23' W 123°16'9 8.9
2015-Apr-28 14:33N 49°18' W 123°28'2019.8
2015-Apr-28 13:33N 49°12' W 123°57'1 0.5
2015-Apr-28 12:29N 49°12' W 123°57'0 0.0
2015-Apr-28 10:14N 49°12' W 123°57'0 0.0
2015-Apr-28 09:32N 49°12' W 123°57'0 0.0
2015-Apr-28 08:32N 49°12' W 123°57'0 0.0
2015-Apr-28 06:14N 49°12' W 123°57'5 6.9
2015-Apr-28 05:34N 49°14' W 123°51'2020.4
2015-Apr-28 04:33N 49°20' W 123°21'0 0.2
2015-Apr-28 03:33N 49°20' W 123°21'2019.6
2015-Apr-28 02:33N 49°14' W 123°50'1 0.8
2015-Apr-28 01:34N 49°14' W 123°51'2020.1
2015-Apr-28 00:33N 49°20' W 123°21'3 2.9
2015-Apr-27 23:34N 49°22' W 123°19'1918.8
2015-Apr-27 22:33N 49°15' W 123°45'9 8.5
2015-Apr-27 21:33N 49°12' W 123°57'1515.4
2015-Apr-27 20:33N 49°17' W 123°36'1413.0
2015-Apr-27 19:31N 49°23' W 123°16'1212.7
2015-Apr-27 18:33N 49°17' W 123°33'1712.9
2015-Apr-27 17:15N 49°12' W 123°57'1115.5
2015-Apr-27 16:33N 49°16' W 123°43'1814.9
2015-Apr-27 15:20N 49°23' W 123°16'911.4
2015-Apr-27 14:33N 49°18' W 123°28'2019.8
2015-Apr-27 13:33N 49°12' W 123°57'1 0.6
2015-Apr-27 12:31N 49°12' W 123°57'0 0.0
2015-Apr-27 11:31N 49°12' W 123°57'0 0.0
2015-Apr-27 10:31N 49°12' W 123°57'0 0.0
2015-Apr-27 09:25N 49°12' W 123°57'0 0.0
2015-Apr-27 08:31N 49°12' W 123°57'0 0.0
2015-Apr-27 07:31N 49°12' W 123°57'0 0.0
2015-Apr-27 06:32N 49°12' W 123°57'1211.8
2015-Apr-27 05:33N 49°17' W 123°41'1712.5
2015-Apr-27 04:10N 49°23' W 123°16'914.0
2015-Apr-27 03:33N 49°18' W 123°28'2019.7
2015-Apr-27 02:33N 49°12' W 123°57'4 4.0
2015-Apr-27 01:33N 49°14' W 123°51'2020.0
2015-Apr-27 00:34N 49°20' W 123°22'5 4.6
2015-Apr-26 23:33N 49°23' W 123°17'1919.2
2015-Apr-26 22:34N 49°15' W 123°44'10 9.5
2015-Apr-26 21:33N 49°12' W 123°57'1515.4
2015-Apr-26 20:34N 49°18' W 123°36'1411.2
2015-Apr-26 19:21N 49°23' W 123°16'1113.3
2015-Apr-26 18:33N 49°18' W 123°31'1816.4
2015-Apr-26 17:26N 49°12' W 123°57'1011.5
2015-Apr-26 16:33N 49°16' W 123°43'1918.8
2015-Apr-26 15:33N 49°23' W 123°16'9 9.0
2015-Apr-26 14:34N 49°18' W 123°28'2019.7
2015-Apr-26 13:33N 49°12' W 123°57'1 0.5
2015-Apr-26 12:31N 49°12' W 123°57'0 0.0
2015-Apr-26 11:31N 49°12' W 123°57'0 0.0
2015-Apr-26 10:28N 49°12' W 123°57'0 0.0
2015-Apr-26 09:28N 49°12' W 123°57'0 0.0
2015-Apr-26 06:22N 49°12' W 123°57'810.0
2015-Apr-26 05:34N 49°15' W 123°46'1919.5
2015-Apr-26 04:34N 49°22' W 123°18'4 4.5
2015-Apr-26 03:33N 49°19' W 123°23'2019.7
2015-Apr-26 02:33N 49°14' W 123°52'1 1.4
2015-Apr-26 01:34N 49°15' W 123°51'1919.2
2015-Apr-26 00:34N 49°20' W 123°22'4 4.4
2015-Apr-25 23:33N 49°23' W 123°18'1818.4
2015-Apr-25 22:33N 49°15' W 123°43'10 9.3
2015-Apr-25 21:30N 49°12' W 123°57'1415.3
2015-Apr-25 20:34N 49°17' W 123°37'1411.8
2015-Apr-25 19:20N 49°23' W 123°16'1216.1
2015-Apr-25 18:33N 49°17' W 123°33'1715.7
2015-Apr-25 17:30N 49°12' W 123°57'1111.7
2015-Apr-25 16:33N 49°17' W 123°43'1818.1
2015-Apr-25 15:33N 49°23' W 123°16'9 9.1
2015-Apr-25 14:33N 49°18' W 123°28'1919.5
2015-Apr-25 13:33N 49°12' W 123°57'1 0.5
2015-Apr-25 12:04N 49°12' W 123°57'0 0.0
2015-Apr-25 11:28N 49°12' W 123°57'0 0.0
2015-Apr-25 10:28N 49°12' W 123°57'0 0.0
2015-Apr-25 09:28N 49°12' W 123°57'0 0.0
2015-Apr-25 08:28N 49°12' W 123°57'0 0.0
2015-Apr-25 07:28N 49°12' W 123°57'0 0.0
2015-Apr-25 06:19N 49°12' W 123°57'1317.2
2015-Apr-25 05:34N 49°17' W 123°39'1612.2
2015-Apr-25 04:15N 49°23' W 123°16'1015.0
2015-Apr-25 03:33N 49°17' W 123°30'1918.4
2015-Apr-25 02:33N 49°12' W 123°57'9 8.8
2015-Apr-25 01:33N 49°15' W 123°45'1919.5
2015-Apr-25 00:33N 49°23' W 123°18'1 1.2
2015-Apr-24 23:33N 49°22' W 123°19'1919.3
2015-Apr-24 22:34N 49°15' W 123°46'8 7.4
2015-Apr-24 21:30N 49°12' W 123°57'1717.6
2015-Apr-24 20:33N 49°18' W 123°34'1210.1
2015-Apr-24 19:20N 49°23' W 123°16'1216.1
2015-Apr-24 18:33N 49°17' W 123°33'1715.0
2015-Apr-24 17:27N 49°12' W 123°57'1011.7
2015-Apr-24 16:33N 49°16' W 123°43'1918.6
2015-Apr-24 15:34N 49°23' W 123°16'9 9.3
2015-Apr-24 14:33N 49°18' W 123°28'2019.6
2015-Apr-24 13:33N 49°12' W 123°57'1 0.6
2015-Apr-24 12:33N 49°12' W 123°57'0 0.0
2015-Apr-24 11:33N 49°12' W 123°57'0 0.0
2015-Apr-24 10:33N 49°12' W 123°57'0 0.0
2015-Apr-24 09:30N 49°12' W 123°57'0 0.0
2015-Apr-24 07:27N 49°12' W 123°57'0 0.0
2015-Apr-24 06:33N 49°12' W 123°57'4 4.5
2015-Apr-24 05:33N 49°14' W 123°52'2020.0
2015-Apr-24 04:34N 49°19' W 123°22'1 1.2
2015-Apr-24 03:33N 49°20' W 123°21'2020.1
2015-Apr-24 02:33N 49°14' W 123°50'1 1.4
2015-Apr-24 01:33N 49°15' W 123°52'2020.2
2015-Apr-24 00:34N 49°19' W 123°22'3 3.2
2015-Apr-23 23:33N 49°22' W 123°19'1918.8
2015-Apr-23 22:33N 49°15' W 123°46'8 8.2
2015-Apr-23 21:32N 49°12' W 123°57'1616.0
2015-Apr-23 20:34N 49°18' W 123°35'1311.6
2015-Apr-23 19:25N 49°23' W 123°16'1213.6
2015-Apr-23 18:33N 49°17' W 123°32'1717.1
2015-Apr-23 17:33N 49°12' W 123°57'1111.6
2015-Apr-23 16:33N 49°16' W 123°41'  
Track history (hours):
 
Tides and Currents Weather Stations Pressure Air Temp Water Temp Dewpoint Dewpoint Depression Visibility Wind Speed Wind Dir Waves Ship Positions

Queen Of Cowichan

Last reported at 2015-May-03 15:33 UTC. Time now 2015-May-03 15:54 UTC.
Position N 49°23' W 123°16'.

Length 139 m; draft 5.5 m.

Type: Passenger vessel. MMSI: 316001251.

Date/timePositionNaut miles runAvg speedWind from/ knotsBaromVisibWave heightAir tempDewpointWater temp
2015-May-03 15:33N 49°23' W 123°16'9 9.5
2015-May-03 14:33N 49°18' W 123°29'2018.7
2015-May-03 13:31N 49°12' W 123°57'0 0.2
2015-May-03 12:30N 49°12' W 123°57'0 0.0
2015-May-03 07:33N 49°12' W 123°57'2 1.0
2015-May-03 05:33N 49°13' W 123°55'1919.1
2015-May-03 04:33N 49°19' W 123°27'7 7.0
2015-May-03 03:33N 49°23' W 123°18'2019.7
2015-May-03 02:33N 49°15' W 123°46'5 5.5
2015-May-03 01:34N 49°13' W 123°54'2019.8
2015-May-03 00:33N 49°19' W 123°24'6 5.9
2015-May-02 23:33N 49°23' W 123°18'1919.3
2015-May-02 22:33N 49°15' W 123°45'9 8.7
2015-May-02 21:33N 49°12' W 123°57'1818.5
2015-May-02 20:34N 49°18' W 123°31'1010.3
2015-May-02 19:33N 49°23' W 123°16'1514.8
2015-May-02 18:33N 49°16' W 123°36'1413.7
2015-May-02 17:30N 49°12' W 123°57'1212.7
2015-May-02 16:34N 49°17' W 123°41'1715.2
2015-May-02 15:27N 49°23' W 123°16'910.7
2015-May-02 14:33N 49°17' W 123°28'1919.4
2015-May-02 13:33N 49°12' W 123°57'0 0.0
2015-May-02 06:25N 49°12' W 123°57'1112.6
2015-May-02 05:34N 49°16' W 123°42'1818.2
2015-May-02 04:33N 49°23' W 123°16'9 9.1
2015-May-02 03:33N 49°18' W 123°28'2019.7
2015-May-02 02:32N 49°12' W 123°57'8 8.1
2015-May-02 01:33N 49°15' W 123°46'1919.0
2015-May-02 00:33N 49°22' W 123°19'1 1.3
2015-May-01 23:33N 49°21' W 123°20'2019.9
2015-May-01 22:33N 49°14' W 123°49'6 5.9
2015-May-01 21:32N 49°12' W 123°57'1919.1
2015-May-01 20:34N 49°18' W 123°31'1010.1
2015-May-01 19:33N 49°23' W 123°16'1313.2
2015-May-01 18:33N 49°17' W 123°34'1615.9
2015-May-01 17:33N 49°12' W 123°57'1110.7
2015-May-01 16:33N 49°16' W 123°43'1818.3
2015-May-01 15:33N 49°23' W 123°16'9 8.9
2015-May-01 14:33N 49°18' W 123°28'2019.9
2015-May-01 13:33N 49°12' W 123°57'1 0.2
2015-May-01 11:16N 49°12' W 123°57'0 0.0
2015-May-01 09:28N 49°12' W 123°57'0 0.0
2015-May-01 07:04N 49°12' W 123°57'2 1.3
2015-May-01 05:33N 49°13' W 123°55'2019.9
2015-May-01 04:34N 49°19' W 123°26'5 4.6
2015-May-01 03:33N 49°21' W 123°20'2019.8
2015-May-01 02:33N 49°14' W 123°48'5 4.9
2015-May-01 01:34N 49°13' W 123°55'2019.6
2015-May-01 00:33N 49°19' W 123°27'8 7.9
2015-Apr-30 23:33N 49°23' W 123°16'1818.6
2015-Apr-30 22:33N 49°15' W 123°42'11 8.8
2015-Apr-30 21:21N 49°12' W 123°57'1417.6
2015-Apr-30 20:34N 49°17' W 123°38'1514.7
2015-Apr-30 19:33N 49°23' W 123°16'1010.4
2015-Apr-30 18:33N 49°18' W 123°30'1914.0
2015-Apr-30 17:13N 49°12' W 123°57'1015.3
2015-Apr-30 16:33N 49°16' W 123°44'1919.0
2015-Apr-30 15:33N 49°23' W 123°16'9 9.1
2015-Apr-30 14:34N 49°18' W 123°28'2019.9
2015-Apr-30 13:33N 49°12' W 123°57'0 0.3
2015-Apr-30 12:09N 49°12' W 123°57'0 0.0
2015-Apr-30 10:21N 49°12' W 123°57'0 0.0
2015-Apr-30 09:15N 49°12' W 123°57'0 0.0
2015-Apr-30 08:15N 49°12' W 123°57'0 0.0
2015-Apr-30 07:33N 49°12' W 123°57'1 0.3
2015-Apr-30 05:33N 49°12' W 123°57'2019.8
2015-Apr-30 04:33N 49°18' W 123°28'8 7.9
2015-Apr-30 03:34N 49°23' W 123°18'1919.3
2015-Apr-30 02:33N 49°15' W 123°45'8 7.7
2015-Apr-30 01:33N 49°12' W 123°56'2019.7
2015-Apr-30 00:33N 49°19' W 123°28'9 8.6
2015-Apr-29 23:33N 49°23' W 123°16'1918.9
2015-Apr-29 22:33N 49°15' W 123°43'10 7.5
2015-Apr-29 21:12N 49°12' W 123°57'1117.7
2015-Apr-29 20:34N 49°17' W 123°42'1716.4
2015-Apr-29 19:30N 49°23' W 123°16'9 9.2
2015-Apr-29 18:34N 49°18' W 123°28'2020.0
2015-Apr-29 17:33N 49°12' W 123°57'9 9.3
2015-Apr-29 16:33N 49°16' W 123°44'1919.2
2015-Apr-29 15:34N 49°23' W 123°16'9 9.3
2015-Apr-29 14:33N 49°18' W 123°28'2019.7
2015-Apr-29 13:34N 49°12' W 123°57'1 0.4
2015-Apr-29 12:17N 49°12' W 123°57'0 0.0
2015-Apr-29 11:32N 49°12' W 123°57'0 0.0
2015-Apr-29 10:29N 49°12' W 123°57'0 0.0
2015-Apr-29 09:17N 49°12' W 123°57'0 0.0
2015-Apr-29 07:08N 49°12' W 123°57'0 0.0
2015-Apr-29 06:32N 49°12' W 123°57'1 0.6
2015-Apr-29 05:34N 49°12' W 123°57'2020.0
2015-Apr-29 04:33N 49°19' W 123°28'7 6.7
2015-Apr-29 03:33N 49°22' W 123°19'1919.4
2015-Apr-29 02:33N 49°15' W 123°46'6 6.1
2015-Apr-29 01:34N 49°13' W 123°55'1919.4
2015-Apr-29 00:34N 49°19' W 123°27'8 7.7
2015-Apr-28 23:34N 49°23' W 123°17'1919.2
2015-Apr-28 22:33N 49°15' W 123°44'9 8.4
2015-Apr-28 21:27N 49°12' W 123°57'1415.3
2015-Apr-28 20:33N 49°17' W 123°38'1511.8
2015-Apr-28 19:15N 49°23' W 123°16'1116.1
2015-Apr-28 18:33N 49°17' W 123°31'1817.5
2015-Apr-28 17:32N 49°12' W 123°57'1110.8
2015-Apr-28 16:33N 49°16' W 123°42'1818.4
2015-Apr-28 15:33N 49°23' W 123°16'9 8.9
2015-Apr-28 14:33N 49°18' W 123°28'2019.8
2015-Apr-28 13:33N 49°12' W 123°57'1 0.5
2015-Apr-28 12:29N 49°12' W 123°57'0 0.0
2015-Apr-28 10:14N 49°12' W 123°57'0 0.0
2015-Apr-28 09:32N 49°12' W 123°57'0 0.0
2015-Apr-28 08:32N 49°12' W 123°57'0 0.0
2015-Apr-28 06:14N 49°12' W 123°57'5 6.9
2015-Apr-28 05:34N 49°14' W 123°51'2020.4
2015-Apr-28 04:33N 49°20' W 123°21'0 0.2
2015-Apr-28 03:33N 49°20' W 123°21'2019.6
2015-Apr-28 02:33N 49°14' W 123°50'1 0.8
2015-Apr-28 01:34N 49°14' W 123°51'2020.1
2015-Apr-28 00:33N 49°20' W 123°21'3 2.9
2015-Apr-27 23:34N 49°22' W 123°19'1918.8
2015-Apr-27 22:33N 49°15' W 123°45'9 8.5
2015-Apr-27 21:33N 49°12' W 123°57'1515.4
2015-Apr-27 20:33N 49°17' W 123°36'1413.0
2015-Apr-27 19:31N 49°23' W 123°16'1212.7
2015-Apr-27 18:33N 49°17' W 123°33'1712.9
2015-Apr-27 17:15N 49°12' W 123°57'1115.5
2015-Apr-27 16:33N 49°16' W 123°43'1814.9
2015-Apr-27 15:20N 49°23' W 123°16'911.4
2015-Apr-27 14:33N 49°18' W 123°28'2019.8
2015-Apr-27 13:33N 49°12' W 123°57'1 0.6
2015-Apr-27 12:31N 49°12' W 123°57'0 0.0
2015-Apr-27 11:31N 49°12' W 123°57'0 0.0
2015-Apr-27 10:31N 49°12' W 123°57'0 0.0
2015-Apr-27 09:25N 49°12' W 123°57'0 0.0
2015-Apr-27 08:31N 49°12' W 123°57'0 0.0
2015-Apr-27 07:31N 49°12' W 123°57'0 0.0
2015-Apr-27 06:32N 49°12' W 123°57'1211.8
2015-Apr-27 05:33N 49°17' W 123°41'1712.5
2015-Apr-27 04:10N 49°23' W 123°16'914.0
2015-Apr-27 03:33N 49°18' W 123°28'2019.7
2015-Apr-27 02:33N 49°12' W 123°57'4 4.0
2015-Apr-27 01:33N 49°14' W 123°51'2020.0
2015-Apr-27 00:34N 49°20' W 123°22'5 4.6
2015-Apr-26 23:33N 49°23' W 123°17'1919.2
2015-Apr-26 22:34N 49°15' W 123°44'10 9.5
2015-Apr-26 21:33N 49°12' W 123°57'1515.4
2015-Apr-26 20:34N 49°18' W 123°36'1411.2
2015-Apr-26 19:21N 49°23' W 123°16'1113.3
2015-Apr-26 18:33N 49°18' W 123°31'1816.4
2015-Apr-26 17:26N 49°12' W 123°57'1011.5
2015-Apr-26 16:33N 49°16' W 123°43'1918.8
2015-Apr-26 15:33N 49°23' W 123°16'9 9.0
2015-Apr-26 14:34N 49°18' W 123°28'2019.7
2015-Apr-26 13:33N 49°12' W 123°57'1 0.5
2015-Apr-26 12:31N 49°12' W 123°57'0 0.0
2015-Apr-26 11:31N 49°12' W 123°57'0 0.0
2015-Apr-26 10:28N 49°12' W 123°57'0 0.0
2015-Apr-26 09:28N 49°12' W 123°57'0 0.0
2015-Apr-26 06:22N 49°12' W 123°57'810.0
2015-Apr-26 05:34N 49°15' W 123°46'1919.5
2015-Apr-26 04:34N 49°22' W 123°18'4 4.5
2015-Apr-26 03:33N 49°19' W 123°23'2019.7
2015-Apr-26 02:33N 49°14' W 123°52'1 1.4
2015-Apr-26 01:34N 49°15' W 123°51'1919.2
2015-Apr-26 00:34N 49°20' W 123°22'4 4.4
2015-Apr-25 23:33N 49°23' W 123°18'1818.4
2015-Apr-25 22:33N 49°15' W 123°43'10 9.3
2015-Apr-25 21:30N 49°12' W 123°57'1415.3
2015-Apr-25 20:34N 49°17' W 123°37'1411.8
2015-Apr-25 19:20N 49°23' W 123°16'1216.1
2015-Apr-25 18:33N 49°17' W 123°33'1715.7
2015-Apr-25 17:30N 49°12' W 123°57'1111.7
2015-Apr-25 16:33N 49°17' W 123°43'1818.1
2015-Apr-25 15:33N 49°23' W 123°16'9 9.1
2015-Apr-25 14:33N 49°18' W 123°28'1919.5
2015-Apr-25 13:33N 49°12' W 123°57'1 0.5
2015-Apr-25 12:04N 49°12' W 123°57'0 0.0
2015-Apr-25 11:28N 49°12' W 123°57'0 0.0
2015-Apr-25 10:28N 49°12' W 123°57'0 0.0
2015-Apr-25 09:28N 49°12' W 123°57'0 0.0
2015-Apr-25 08:28N 49°12' W 123°57'0 0.0
2015-Apr-25 07:28N 49°12' W 123°57'0 0.0
2015-Apr-25 06:19N 49°12' W 123°57'1317.2
2015-Apr-25 05:34N 49°17' W 123°39'1612.2
2015-Apr-25 04:15N 49°23' W 123°16'1015.0
2015-Apr-25 03:33N 49°17' W 123°30'1918.4
2015-Apr-25 02:33N 49°12' W 123°57'9 8.8
2015-Apr-25 01:33N 49°15' W 123°45'1919.5
2015-Apr-25 00:33N 49°23' W 123°18'1 1.2
2015-Apr-24 23:33N 49°22' W 123°19'1919.3
2015-Apr-24 22:34N 49°15' W 123°46'8 7.4
2015-Apr-24 21:30N 49°12' W 123°57'1717.6
2015-Apr-24 20:33N 49°18' W 123°34'1210.1
2015-Apr-24 19:20N 49°23' W 123°16'1216.1
2015-Apr-24 18:33N 49°17' W 123°33'1715.0
2015-Apr-24 17:27N 49°12' W 123°57'1011.7
2015-Apr-24 16:33N 49°16' W 123°43'1918.6
2015-Apr-24 15:34N 49°23' W 123°16'9 9.3
2015-Apr-24 14:33N 49°18' W 123°28'2019.6
2015-Apr-24 13:33N 49°12' W 123°57'1 0.6
2015-Apr-24 12:33N 49°12' W 123°57'0 0.0
2015-Apr-24 11:33N 49°12' W 123°57'0 0.0
2015-Apr-24 10:33N 49°12' W 123°57'0 0.0
2015-Apr-24 09:30N 49°12' W 123°57'0 0.0
2015-Apr-24 07:27N 49°12' W 123°57'0 0.0
2015-Apr-24 06:33N 49°12' W 123°57'4 4.5
2015-Apr-24 05:33N 49°14' W 123°52'2020.0
2015-Apr-24 04:34N 49°19' W 123°22'1 1.2
2015-Apr-24 03:33N 49°20' W 123°21'2020.1
2015-Apr-24 02:33N 49°14' W 123°50'1 1.4
2015-Apr-24 01:33N 49°15' W 123°52'2020.2
2015-Apr-24 00:34N 49°19' W 123°22'3 3.2
2015-Apr-23 23:33N 49°22' W 123°19'1918.8
2015-Apr-23 22:33N 49°15' W 123°46'8 8.2
2015-Apr-23 21:32N 49°12' W 123°57'1616.0
2015-Apr-23 20:34N 49°18' W 123°35'1311.6
2015-Apr-23 19:25N 49°23' W 123°16'1213.6
2015-Apr-23 18:33N 49°17' W 123°32'1717.1
2015-Apr-23 17:33N 49°12' W 123°57'1111.6
2015-Apr-23 16:33N 49°16' W 123°41'  

Dump ship's entire track history